sensor_id;sensor_type;location;lat;lon;timestamp;P1;durP1;ratioP1;P2;durP2;ratioP2
65717;SDS011;52445;52.466;-1.016;2023-07-20T00:02:21;4.40;;;2.05;;
65717;SDS011;52445;52.466;-1.016;2023-07-20T00:04:48;4.65;;;2.05;;
65717;SDS011;52445;52.466;-1.016;2023-07-20T00:07:14;5.82;;;2.00;;
65717;SDS011;52445;52.466;-1.016;2023-07-20T00:09:41;5.53;;;1.73;;
65717;SDS011;52445;52.466;-1.016;2023-07-20T00:12:08;3.60;;;1.75;;
65717;SDS011;52445;52.466;-1.016;2023-07-20T00:14:35;5.95;;;2.30;;
65717;SDS011;52445;52.466;-1.016;2023-07-20T00:17:02;7.80;;;2.38;;
65717;SDS011;52445;52.466;-1.016;2023-07-20T00:19:29;4.15;;;1.80;;
65717;SDS011;52445;52.466;-1.016;2023-07-20T00:21:56;6.50;;;2.30;;
65717;SDS011;52445;52.466;-1.016;2023-07-20T00:24:22;6.65;;;2.63;;
65717;SDS011;52445;52.466;-1.016;2023-07-20T00:26:49;6.22;;;2.15;;
65717;SDS011;52445;52.466;-1.016;2023-07-20T00:29:16;5.32;;;2.42;;
65717;SDS011;52445;52.466;-1.016;2023-07-20T00:31:43;6.55;;;2.53;;
65717;SDS011;52445;52.466;-1.016;2023-07-20T00:34:10;8.00;;;2.72;;
65717;SDS011;52445;52.466;-1.016;2023-07-20T00:36:37;6.68;;;2.60;;
65717;SDS011;52445;52.466;-1.016;2023-07-20T00:39:04;9.80;;;2.83;;
65717;SDS011;52445;52.466;-1.016;2023-07-20T00:41:31;6.93;;;2.35;;
65717;SDS011;52445;52.466;-1.016;2023-07-20T00:43:59;9.07;;;3.40;;
65717;SDS011;52445;52.466;-1.016;2023-07-20T00:46:26;6.88;;;2.35;;
65717;SDS011;52445;52.466;-1.016;2023-07-20T00:48:53;7.53;;;3.22;;
65717;SDS011;52445;52.466;-1.016;2023-07-20T00:51:21;7.07;;;2.35;;
65717;SDS011;52445;52.466;-1.016;2023-07-20T00:53:49;9.35;;;3.45;;
65717;SDS011;52445;52.466;-1.016;2023-07-20T00:56:17;6.35;;;2.42;;
65717;SDS011;52445;52.466;-1.016;2023-07-20T00:58:45;6.55;;;2.63;;
65717;SDS011;52445;52.466;-1.016;2023-07-20T01:01:12;9.15;;;2.92;;
65717;SDS011;52445;52.466;-1.016;2023-07-20T01:03:39;5.57;;;2.83;;
65717;SDS011;52445;52.466;-1.016;2023-07-20T01:06:10;4.22;;;2.65;;
65717;SDS011;52445;52.466;-1.016;2023-07-20T01:09:09;4.95;;;2.47;;
65717;SDS011;52445;52.466;-1.016;2023-07-20T01:14:18;4.18;;;2.38;;
65717;SDS011;52445;52.466;-1.016;2023-07-20T01:16:45;4.80;;;3.35;;
65717;SDS011;52445;52.466;-1.016;2023-07-20T01:19:13;6.97;;;3.65;;
65717;SDS011;52445;52.466;-1.016;2023-07-20T01:21:45;6.88;;;5.10;;
65717;SDS011;52445;52.466;-1.016;2023-07-20T01:29:35;5.28;;;1.65;;
65717;SDS011;52445;52.466;-1.016;2023-07-20T01:32:26;5.22;;;2.30;;
65717;SDS011;52445;52.466;-1.016;2023-07-20T01:34:53;6.55;;;2.42;;
65717;SDS011;52445;52.466;-1.016;2023-07-20T01:37:21;4.03;;;2.22;;
65717;SDS011;52445;52.466;-1.016;2023-07-20T01:39:54;4.88;;;2.80;;
65717;SDS011;52445;52.466;-1.016;2023-07-20T01:42:22;4.63;;;2.20;;
65717;SDS011;52445;52.466;-1.016;2023-07-20T01:44:50;6.72;;;2.38;;
65717;SDS011;52445;52.466;-1.016;2023-07-20T01:47:19;6.45;;;2.70;;
65717;SDS011;52445;52.466;-1.016;2023-07-20T01:49:45;5.50;;;2.17;;
65717;SDS011;52445;52.466;-1.016;2023-07-20T01:52:12;3.58;;;2.03;;
65717;SDS011;52445;52.466;-1.016;2023-07-20T01:54:39;4.35;;;2.33;;
65717;SDS011;52445;52.466;-1.016;2023-07-20T01:57:06;5.82;;;2.58;;
65717;SDS011;52445;52.466;-1.016;2023-07-20T01:59:33;7.40;;;2.78;;
65717;SDS011;52445;52.466;-1.016;2023-07-20T02:01:59;5.25;;;2.45;;
65717;SDS011;52445;52.466;-1.016;2023-07-20T02:04:26;6.47;;;2.65;;
65717;SDS011;52445;52.466;-1.016;2023-07-20T02:06:53;8.82;;;2.88;;
65717;SDS011;52445;52.466;-1.016;2023-07-20T02:09:19;5.15;;;2.47;;
65717;SDS011;52445;52.466;-1.016;2023-07-20T02:11:46;7.43;;;2.55;;
65717;SDS011;52445;52.466;-1.016;2023-07-20T02:14:13;5.78;;;2.42;;
65717;SDS011;52445;52.466;-1.016;2023-07-20T02:16:40;7.95;;;2.55;;
65717;SDS011;52445;52.466;-1.016;2023-07-20T02:19:06;5.90;;;2.58;;
65717;SDS011;52445;52.466;-1.016;2023-07-20T02:21:33;5.53;;;2.15;;
65717;SDS011;52445;52.466;-1.016;2023-07-20T02:24:00;6.05;;;2.35;;
65717;SDS011;52445;52.466;-1.016;2023-07-20T02:26:27;5.57;;;3.15;;
65717;SDS011;52445;52.466;-1.016;2023-07-20T02:28:54;9.00;;;2.92;;
65717;SDS011;52445;52.466;-1.016;2023-07-20T02:31:21;6.45;;;2.72;;
65717;SDS011;52445;52.466;-1.016;2023-07-20T02:33:47;6.28;;;2.63;;
65717;SDS011;52445;52.466;-1.016;2023-07-20T02:36:14;5.88;;;2.35;;
65717;SDS011;52445;52.466;-1.016;2023-07-20T02:38:43;6.55;;;3.05;;
65717;SDS011;52445;52.466;-1.016;2023-07-20T02:41:09;7.78;;;2.75;;
65717;SDS011;52445;52.466;-1.016;2023-07-20T02:43:36;5.95;;;2.70;;
65717;SDS011;52445;52.466;-1.016;2023-07-20T02:46:03;5.90;;;3.13;;
65717;SDS011;52445;52.466;-1.016;2023-07-20T02:48:30;6.95;;;4.32;;
65717;SDS011;52445;52.466;-1.016;2023-07-20T02:50:56;6.32;;;2.72;;
65717;SDS011;52445;52.466;-1.016;2023-07-20T02:53:23;5.68;;;2.42;;
65717;SDS011;52445;52.466;-1.016;2023-07-20T02:55:49;6.28;;;2.95;;
65717;SDS011;52445;52.466;-1.016;2023-07-20T02:58:16;8.07;;;2.95;;
65717;SDS011;52445;52.466;-1.016;2023-07-20T03:00:43;7.35;;;2.88;;
65717;SDS011;52445;52.466;-1.016;2023-07-20T03:03:10;6.00;;;2.80;;
65717;SDS011;52445;52.466;-1.016;2023-07-20T03:05:40;7.38;;;3.88;;
65717;SDS011;52445;52.466;-1.016;2023-07-20T03:08:07;5.97;;;2.67;;
65717;SDS011;52445;52.466;-1.016;2023-07-20T03:10:39;6.88;;;2.55;;
65717;SDS011;52445;52.466;-1.016;2023-07-20T03:13:07;5.82;;;2.55;;
65717;SDS011;52445;52.466;-1.016;2023-07-20T03:15:34;5.32;;;2.45;;
65717;SDS011;52445;52.466;-1.016;2023-07-20T03:18:01;6.70;;;3.00;;
65717;SDS011;52445;52.466;-1.016;2023-07-20T03:20:29;7.05;;;2.80;;
65717;SDS011;52445;52.466;-1.016;2023-07-20T03:22:56;7.65;;;2.63;;
65717;SDS011;52445;52.466;-1.016;2023-07-20T03:25:22;7.93;;;2.90;;
65717;SDS011;52445;52.466;-1.016;2023-07-20T03:27:53;6.70;;;2.95;;
65717;SDS011;52445;52.466;-1.016;2023-07-20T03:30:20;5.88;;;2.95;;
65717;SDS011;52445;52.466;-1.016;2023-07-20T03:32:46;7.35;;;3.10;;
65717;SDS011;52445;52.466;-1.016;2023-07-20T03:35:13;6.85;;;3.40;;
65717;SDS011;52445;52.466;-1.016;2023-07-20T03:37:42;6.97;;;3.13;;
65717;SDS011;52445;52.466;-1.016;2023-07-20T03:40:10;7.68;;;3.58;;
65717;SDS011;52445;52.466;-1.016;2023-07-20T03:42:37;8.20;;;3.20;;
65717;SDS011;52445;52.466;-1.016;2023-07-20T03:45:05;6.50;;;3.08;;
65717;SDS011;52445;52.466;-1.016;2023-07-20T03:47:32;7.30;;;3.03;;
65717;SDS011;52445;52.466;-1.016;2023-07-20T03:49:59;13.00;;;3.28;;
65717;SDS011;52445;52.466;-1.016;2023-07-20T03:52:26;8.05;;;2.80;;
65717;SDS011;52445;52.466;-1.016;2023-07-20T03:54:53;6.93;;;2.67;;
65717;SDS011;52445;52.466;-1.016;2023-07-20T03:57:19;9.00;;;3.17;;
65717;SDS011;52445;52.466;-1.016;2023-07-20T03:59:47;8.75;;;3.10;;
65717;SDS011;52445;52.466;-1.016;2023-07-20T04:02:14;10.43;;;3.55;;
65717;SDS011;52445;52.466;-1.016;2023-07-20T04:04:41;7.00;;;3.10;;
65717;SDS011;52445;52.466;-1.016;2023-07-20T04:07:07;6.20;;;3.00;;
65717;SDS011;52445;52.466;-1.016;2023-07-20T04:09:34;9.50;;;4.20;;
65717;SDS011;52445;52.466;-1.016;2023-07-20T04:12:01;10.32;;;3.10;;
65717;SDS011;52445;52.466;-1.016;2023-07-20T04:14:28;8.35;;;3.60;;
65717;SDS011;52445;52.466;-1.016;2023-07-20T04:16:54;7.05;;;3.33;;
65717;SDS011;52445;52.466;-1.016;2023-07-20T04:19:21;8.02;;;3.45;;
65717;SDS011;52445;52.466;-1.016;2023-07-20T04:21:48;8.75;;;3.20;;
65717;SDS011;52445;52.466;-1.016;2023-07-20T04:24:14;6.57;;;3.17;;
65717;SDS011;52445;52.466;-1.016;2023-07-20T04:26:41;8.27;;;3.22;;
65717;SDS011;52445;52.466;-1.016;2023-07-20T04:29:08;8.27;;;3.25;;
65717;SDS011;52445;52.466;-1.016;2023-07-20T04:31:34;7.38;;;3.35;;
65717;SDS011;52445;52.466;-1.016;2023-07-20T04:34:01;9.80;;;3.70;;
65717;SDS011;52445;52.466;-1.016;2023-07-20T04:36:28;9.13;;;3.92;;
65717;SDS011;52445;52.466;-1.016;2023-07-20T04:38:54;8.35;;;3.42;;
65717;SDS011;52445;52.466;-1.016;2023-07-20T04:41:21;9.77;;;3.75;;
65717;SDS011;52445;52.466;-1.016;2023-07-20T04:43:48;7.35;;;3.30;;
65717;SDS011;52445;52.466;-1.016;2023-07-20T04:46:15;7.35;;;3.33;;
65717;SDS011;52445;52.466;-1.016;2023-07-20T04:48:43;6.95;;;3.83;;
65717;SDS011;52445;52.466;-1.016;2023-07-20T04:51:10;9.85;;;3.88;;
65717;SDS011;52445;52.466;-1.016;2023-07-20T04:53:38;10.70;;;3.72;;
65717;SDS011;52445;52.466;-1.016;2023-07-20T04:56:04;8.15;;;3.50;;
65717;SDS011;52445;52.466;-1.016;2023-07-20T04:58:31;8.90;;;3.95;;
65717;SDS011;52445;52.466;-1.016;2023-07-20T05:00:58;10.15;;;3.78;;
65717;SDS011;52445;52.466;-1.016;2023-07-20T05:03:24;7.25;;;3.42;;
65717;SDS011;52445;52.466;-1.016;2023-07-20T05:05:51;7.85;;;3.50;;
65717;SDS011;52445;52.466;-1.016;2023-07-20T05:08:18;9.18;;;3.95;;
65717;SDS011;52445;52.466;-1.016;2023-07-20T05:10:45;12.40;;;4.18;;
65717;SDS011;52445;52.466;-1.016;2023-07-20T05:13:11;10.93;;;4.07;;
65717;SDS011;52445;52.466;-1.016;2023-07-20T05:15:38;13.35;;;4.25;;
65717;SDS011;52445;52.466;-1.016;2023-07-20T05:18:05;9.38;;;3.95;;
65717;SDS011;52445;52.466;-1.016;2023-07-20T05:20:32;10.02;;;4.13;;
65717;SDS011;52445;52.466;-1.016;2023-07-20T05:23:00;12.00;;;4.43;;
65717;SDS011;52445;52.466;-1.016;2023-07-20T05:25:27;10.57;;;4.32;;
65717;SDS011;52445;52.466;-1.016;2023-07-20T05:27:56;9.32;;;3.83;;
65717;SDS011;52445;52.466;-1.016;2023-07-20T05:30:23;9.07;;;4.15;;
65717;SDS011;52445;52.466;-1.016;2023-07-20T05:32:50;10.75;;;4.35;;
65717;SDS011;52445;52.466;-1.016;2023-07-20T05:35:19;8.70;;;3.78;;
65717;SDS011;52445;52.466;-1.016;2023-07-20T05:37:45;8.80;;;3.90;;
65717;SDS011;52445;52.466;-1.016;2023-07-20T05:40:13;10.32;;;5.75;;
65717;SDS011;52445;52.466;-1.016;2023-07-20T05:42:45;8.55;;;3.60;;
65717;SDS011;52445;52.466;-1.016;2023-07-20T05:45:14;10.30;;;4.13;;
65717;SDS011;52445;52.466;-1.016;2023-07-20T05:47:41;9.35;;;3.88;;
65717;SDS011;52445;52.466;-1.016;2023-07-20T05:50:08;9.23;;;3.97;;
65717;SDS011;52445;52.466;-1.016;2023-07-20T05:52:36;7.63;;;3.17;;
65717;SDS011;52445;52.466;-1.016;2023-07-20T05:55:04;10.77;;;3.92;;
65717;SDS011;52445;52.466;-1.016;2023-07-20T05:57:31;8.65;;;3.38;;
65717;SDS011;52445;52.466;-1.016;2023-07-20T05:59:58;11.98;;;4.13;;
65717;SDS011;52445;52.466;-1.016;2023-07-20T06:02:24;8.20;;;4.13;;
65717;SDS011;52445;52.466;-1.016;2023-07-20T06:04:51;9.73;;;3.65;;
65717;SDS011;52445;52.466;-1.016;2023-07-20T06:07:18;9.95;;;4.15;;
65717;SDS011;52445;52.466;-1.016;2023-07-20T06:09:44;8.48;;;3.83;;
65717;SDS011;52445;52.466;-1.016;2023-07-20T06:12:11;9.82;;;4.38;;
65717;SDS011;52445;52.466;-1.016;2023-07-20T06:14:38;11.15;;;4.55;;
65717;SDS011;52445;52.466;-1.016;2023-07-20T06:17:05;8.23;;;4.10;;
65717;SDS011;52445;52.466;-1.016;2023-07-20T06:19:31;8.80;;;3.88;;
65717;SDS011;52445;52.466;-1.016;2023-07-20T06:21:58;10.98;;;4.80;;
65717;SDS011;52445;52.466;-1.016;2023-07-20T06:24:25;9.13;;;4.07;;
65717;SDS011;52445;52.466;-1.016;2023-07-20T06:26:51;8.25;;;3.63;;
65717;SDS011;52445;52.466;-1.016;2023-07-20T06:29:18;9.38;;;4.03;;
65717;SDS011;52445;52.466;-1.016;2023-07-20T06:31:45;10.95;;;3.70;;
65717;SDS011;52445;52.466;-1.016;2023-07-20T06:34:12;7.80;;;3.95;;
65717;SDS011;52445;52.466;-1.016;2023-07-20T06:36:38;8.77;;;4.05;;
65717;SDS011;52445;52.466;-1.016;2023-07-20T06:39:05;9.48;;;3.78;;
65717;SDS011;52445;52.466;-1.016;2023-07-20T06:41:35;7.60;;;3.65;;
65717;SDS011;52445;52.466;-1.016;2023-07-20T06:44:04;9.40;;;3.90;;
65717;SDS011;52445;52.466;-1.016;2023-07-20T06:46:31;8.13;;;3.80;;
65717;SDS011;52445;52.466;-1.016;2023-07-20T06:48:58;9.60;;;4.07;;
65717;SDS011;52445;52.466;-1.016;2023-07-20T06:51:27;10.20;;;4.50;;
65717;SDS011;52445;52.466;-1.016;2023-07-20T06:53:54;11.30;;;4.40;;
65717;SDS011;52445;52.466;-1.016;2023-07-20T06:56:21;10.23;;;4.03;;
65717;SDS011;52445;52.466;-1.016;2023-07-20T06:58:51;12.07;;;4.32;;
65717;SDS011;52445;52.466;-1.016;2023-07-20T07:01:18;8.40;;;4.65;;
65717;SDS011;52445;52.466;-1.016;2023-07-20T07:03:47;7.95;;;3.53;;
65717;SDS011;52445;52.466;-1.016;2023-07-20T07:06:18;8.65;;;4.28;;
65717;SDS011;52445;52.466;-1.016;2023-07-20T07:08:45;10.82;;;4.45;;
65717;SDS011;52445;52.466;-1.016;2023-07-20T07:11:11;9.32;;;4.15;;
65717;SDS011;52445;52.466;-1.016;2023-07-20T07:13:38;9.55;;;4.38;;
65717;SDS011;52445;52.466;-1.016;2023-07-20T07:16:05;9.88;;;4.20;;
65717;SDS011;52445;52.466;-1.016;2023-07-20T07:18:35;7.65;;;3.97;;
65717;SDS011;52445;52.466;-1.016;2023-07-20T07:21:01;8.20;;;4.00;;
65717;SDS011;52445;52.466;-1.016;2023-07-20T07:23:29;9.02;;;3.90;;
65717;SDS011;52445;52.466;-1.016;2023-07-20T07:25:55;7.13;;;4.07;;
65717;SDS011;52445;52.466;-1.016;2023-07-20T07:28:22;7.22;;;3.95;;
65717;SDS011;52445;52.466;-1.016;2023-07-20T07:30:49;8.40;;;4.00;;
65717;SDS011;52445;52.466;-1.016;2023-07-20T07:33:16;8.00;;;4.15;;
65717;SDS011;52445;52.466;-1.016;2023-07-20T07:35:43;9.45;;;4.15;;
65717;SDS011;52445;52.466;-1.016;2023-07-20T07:38:09;9.98;;;4.50;;
65717;SDS011;52445;52.466;-1.016;2023-07-20T07:40:57;8.77;;;4.65;;
65717;SDS011;52445;52.466;-1.016;2023-07-20T07:43:25;9.05;;;4.28;;
65717;SDS011;52445;52.466;-1.016;2023-07-20T07:45:53;9.95;;;4.07;;
65717;SDS011;52445;52.466;-1.016;2023-07-20T07:48:21;7.22;;;4.07;;
65717;SDS011;52445;52.466;-1.016;2023-07-20T07:50:48;9.50;;;3.47;;
65717;SDS011;52445;52.466;-1.016;2023-07-20T07:53:16;8.13;;;4.45;;
65717;SDS011;52445;52.466;-1.016;2023-07-20T07:55:43;8.82;;;4.00;;
65717;SDS011;52445;52.466;-1.016;2023-07-20T07:58:10;8.95;;;3.50;;
65717;SDS011;52445;52.466;-1.016;2023-07-20T08:00:36;7.57;;;4.07;;
65717;SDS011;52445;52.466;-1.016;2023-07-20T08:03:03;7.03;;;4.10;;
65717;SDS011;52445;52.466;-1.016;2023-07-20T08:05:30;6.78;;;3.53;;
65717;SDS011;52445;52.466;-1.016;2023-07-20T08:07:56;6.60;;;3.70;;
65717;SDS011;52445;52.466;-1.016;2023-07-20T08:10:23;8.05;;;2.78;;
65717;SDS011;52445;52.466;-1.016;2023-07-20T08:12:50;6.53;;;2.90;;
65717;SDS011;52445;52.466;-1.016;2023-07-20T08:15:17;4.32;;;2.38;;
65717;SDS011;52445;52.466;-1.016;2023-07-20T08:17:44;7.05;;;2.78;;
65717;SDS011;52445;52.466;-1.016;2023-07-20T08:20:12;7.43;;;2.80;;
65717;SDS011;52445;52.466;-1.016;2023-07-20T08:22:39;6.82;;;3.30;;
65717;SDS011;52445;52.466;-1.016;2023-07-20T08:25:06;6.20;;;2.60;;
65717;SDS011;52445;52.466;-1.016;2023-07-20T08:27:34;6.97;;;2.97;;
65717;SDS011;52445;52.466;-1.016;2023-07-20T08:30:01;7.72;;;2.63;;
65717;SDS011;52445;52.466;-1.016;2023-07-20T08:32:29;6.22;;;2.33;;
65717;SDS011;52445;52.466;-1.016;2023-07-20T08:34:56;6.80;;;1.98;;
65717;SDS011;52445;52.466;-1.016;2023-07-20T08:37:23;4.88;;;2.13;;
65717;SDS011;52445;52.466;-1.016;2023-07-20T08:39:50;5.13;;;2.00;;
65717;SDS011;52445;52.466;-1.016;2023-07-20T08:42:16;5.07;;;1.90;;
65717;SDS011;52445;52.466;-1.016;2023-07-20T08:44:43;2.97;;;1.42;;
65717;SDS011;52445;52.466;-1.016;2023-07-20T08:47:12;4.07;;;2.00;;
65717;SDS011;52445;52.466;-1.016;2023-07-20T08:49:40;5.75;;;1.55;;
65717;SDS011;52445;52.466;-1.016;2023-07-20T08:52:07;5.38;;;1.90;;
65717;SDS011;52445;52.466;-1.016;2023-07-20T08:54:34;4.55;;;1.50;;
65717;SDS011;52445;52.466;-1.016;2023-07-20T08:57:03;3.38;;;1.50;;
65717;SDS011;52445;52.466;-1.016;2023-07-20T08:59:31;5.20;;;1.98;;
65717;SDS011;52445;52.466;-1.016;2023-07-20T09:01:59;4.75;;;1.75;;
65717;SDS011;52445;52.466;-1.016;2023-07-20T09:04:26;4.35;;;1.65;;
65717;SDS011;52445;52.466;-1.016;2023-07-20T09:06:53;4.60;;;1.42;;
65717;SDS011;52445;52.466;-1.016;2023-07-20T09:09:21;5.30;;;1.55;;
65717;SDS011;52445;52.466;-1.016;2023-07-20T09:11:48;2.55;;;1.23;;
65717;SDS011;52445;52.466;-1.016;2023-07-20T09:14:16;2.45;;;1.10;;
65717;SDS011;52445;52.466;-1.016;2023-07-20T09:16:47;4.05;;;1.38;;
65717;SDS011;52445;52.466;-1.016;2023-07-20T09:19:19;3.38;;;1.55;;
65717;SDS011;52445;52.466;-1.016;2023-07-20T09:21:46;2.85;;;1.20;;
65717;SDS011;52445;52.466;-1.016;2023-07-20T09:24:17;3.17;;;1.38;;
65717;SDS011;52445;52.466;-1.016;2023-07-20T09:26:46;3.35;;;1.30;;
65717;SDS011;52445;52.466;-1.016;2023-07-20T09:29:18;3.13;;;1.33;;
65717;SDS011;52445;52.466;-1.016;2023-07-20T09:32:02;6.97;;;1.85;;
65717;SDS011;52445;52.466;-1.016;2023-07-20T09:34:31;2.30;;;1.27;;
65717;SDS011;52445;52.466;-1.016;2023-07-20T09:37:02;2.78;;;1.33;;
65717;SDS011;52445;52.466;-1.016;2023-07-20T09:42:00;3.17;;;1.50;;
65717;SDS011;52445;52.466;-1.016;2023-07-20T09:44:31;2.88;;;1.80;;
65717;SDS011;52445;52.466;-1.016;2023-07-20T09:47:02;2.75;;;1.30;;
65717;SDS011;52445;52.466;-1.016;2023-07-20T09:49:31;2.22;;;1.20;;
65717;SDS011;52445;52.466;-1.016;2023-07-20T09:52:19;3.63;;;1.52;;
65717;SDS011;52445;52.466;-1.016;2023-07-20T09:54:50;2.10;;;1.08;;
65717;SDS011;52445;52.466;-1.016;2023-07-20T09:57:19;3.95;;;1.40;;
65717;SDS011;52445;52.466;-1.016;2023-07-20T09:59:48;2.60;;;1.60;;
65717;SDS011;52445;52.466;-1.016;2023-07-20T10:02:30;4.47;;;1.95;;
65717;SDS011;52445;52.466;-1.016;2023-07-20T10:05:01;2.78;;;1.60;;
65717;SDS011;52445;52.466;-1.016;2023-07-20T10:07:32;3.40;;;1.40;;
65717;SDS011;52445;52.466;-1.016;2023-07-20T10:10:05;2.45;;;1.52;;
65717;SDS011;52445;52.466;-1.016;2023-07-20T10:12:34;3.05;;;1.85;;
65717;SDS011;52445;52.466;-1.016;2023-07-20T10:15:11;2.58;;;1.52;;
65717;SDS011;52445;52.466;-1.016;2023-07-20T10:20:32;4.90;;;1.48;;
65717;SDS011;52445;52.466;-1.016;2023-07-20T10:23:02;3.22;;;1.80;;
65717;SDS011;52445;52.466;-1.016;2023-07-20T10:25:28;2.92;;;2.60;;
65717;SDS011;52445;52.466;-1.016;2023-07-20T10:27:55;4.30;;;1.63;;
65717;SDS011;52445;52.466;-1.016;2023-07-20T10:30:23;3.35;;;2.28;;
65717;SDS011;52445;52.466;-1.016;2023-07-20T10:32:51;5.15;;;1.77;;
65717;SDS011;52445;52.466;-1.016;2023-07-20T10:35:18;4.15;;;2.97;;
65717;SDS011;52445;52.466;-1.016;2023-07-20T10:38:01;2.67;;;1.67;;
65717;SDS011;52445;52.466;-1.016;2023-07-20T10:40:30;2.22;;;1.05;;
65717;SDS011;52445;52.466;-1.016;2023-07-20T10:43:04;3.35;;;1.35;;
65717;SDS011;52445;52.466;-1.016;2023-07-20T10:45:42;3.78;;;1.63;;
65717;SDS011;52445;52.466;-1.016;2023-07-20T10:48:18;4.78;;;2.67;;
65717;SDS011;52445;52.466;-1.016;2023-07-20T10:50:50;3.53;;;2.00;;
65717;SDS011;52445;52.466;-1.016;2023-07-20T10:53:48;3.60;;;2.50;;
65717;SDS011;52445;52.466;-1.016;2023-07-20T10:56:15;2.53;;;2.00;;
65717;SDS011;52445;52.466;-1.016;2023-07-20T10:58:47;2.03;;;1.35;;
65717;SDS011;52445;52.466;-1.016;2023-07-20T11:01:14;4.53;;;2.20;;
65717;SDS011;52445;52.466;-1.016;2023-07-20T11:03:43;5.75;;;2.55;;
65717;SDS011;52445;52.466;-1.016;2023-07-20T11:11:42;1.92;;;1.20;;
65717;SDS011;52445;52.466;-1.016;2023-07-20T11:14:22;2.83;;;2.20;;
65717;SDS011;52445;52.466;-1.016;2023-07-20T11:16:50;4.40;;;2.38;;
65717;SDS011;52445;52.466;-1.016;2023-07-20T11:19:20;3.28;;;2.30;;
65717;SDS011;52445;52.466;-1.016;2023-07-20T11:21:53;2.65;;;1.27;;
65717;SDS011;52445;52.466;-1.016;2023-07-20T11:24:29;3.67;;;3.15;;
65717;SDS011;52445;52.466;-1.016;2023-07-20T11:26:56;4.50;;;2.85;;
65717;SDS011;52445;52.466;-1.016;2023-07-20T11:29:23;2.75;;;2.50;;
65717;SDS011;52445;52.466;-1.016;2023-07-20T11:31:58;3.88;;;3.30;;
65717;SDS011;52445;52.466;-1.016;2023-07-20T11:34:25;5.30;;;3.45;;
65717;SDS011;52445;52.466;-1.016;2023-07-20T11:36:53;2.50;;;1.40;;
65717;SDS011;52445;52.466;-1.016;2023-07-20T11:39:23;3.22;;;1.65;;
65717;SDS011;52445;52.466;-1.016;2023-07-20T11:41:53;4.10;;;1.38;;
65717;SDS011;52445;52.466;-1.016;2023-07-20T11:44:22;3.22;;;2.05;;
65717;SDS011;52445;52.466;-1.016;2023-07-20T11:49:48;2.63;;;1.10;;
65717;SDS011;52445;52.466;-1.016;2023-07-20T11:52:22;2.10;;;1.17;;
65717;SDS011;52445;52.466;-1.016;2023-07-20T11:54:50;3.20;;;1.63;;
65717;SDS011;52445;52.466;-1.016;2023-07-20T11:57:17;2.50;;;1.25;;
65717;SDS011;52445;52.466;-1.016;2023-07-20T11:59:53;2.92;;;1.42;;
65717;SDS011;52445;52.466;-1.016;2023-07-20T12:02:24;2.22;;;1.00;;
65717;SDS011;52445;52.466;-1.016;2023-07-20T12:04:54;2.10;;;0.98;;
65717;SDS011;52445;52.466;-1.016;2023-07-20T12:07:21;2.25;;;1.23;;
65717;SDS011;52445;52.466;-1.016;2023-07-20T12:12:38;2.40;;;1.00;;
65717;SDS011;52445;52.466;-1.016;2023-07-20T12:15:24;2.00;;;0.95;;
65717;SDS011;52445;52.466;-1.016;2023-07-20T12:17:56;3.92;;;1.50;;
65717;SDS011;52445;52.466;-1.016;2023-07-20T12:20:32;2.60;;;1.20;;
65717;SDS011;52445;52.466;-1.016;2023-07-20T12:23:03;2.90;;;1.48;;
65717;SDS011;52445;52.466;-1.016;2023-07-20T12:25:32;3.97;;;1.80;;
65717;SDS011;52445;52.466;-1.016;2023-07-20T12:28:00;2.17;;;1.25;;
65717;SDS011;52445;52.466;-1.016;2023-07-20T12:30:29;2.50;;;1.25;;
65717;SDS011;52445;52.466;-1.016;2023-07-20T12:32:56;2.85;;;1.45;;
65717;SDS011;52445;52.466;-1.016;2023-07-20T12:35:23;3.85;;;1.80;;
65717;SDS011;52445;52.466;-1.016;2023-07-20T12:37:50;3.85;;;1.40;;
65717;SDS011;52445;52.466;-1.016;2023-07-20T12:40:17;2.85;;;1.65;;
65717;SDS011;52445;52.466;-1.016;2023-07-20T12:42:44;1.88;;;1.00;;
65717;SDS011;52445;52.466;-1.016;2023-07-20T12:45:11;3.65;;;1.70;;
65717;SDS011;52445;52.466;-1.016;2023-07-20T12:47:38;2.80;;;1.40;;
65717;SDS011;52445;52.466;-1.016;2023-07-20T12:50:05;3.40;;;1.60;;
65717;SDS011;52445;52.466;-1.016;2023-07-20T12:52:35;2.90;;;2.00;;
65717;SDS011;52445;52.466;-1.016;2023-07-20T12:55:04;4.05;;;1.60;;
65717;SDS011;52445;52.466;-1.016;2023-07-20T12:57:32;3.28;;;1.63;;
65717;SDS011;52445;52.466;-1.016;2023-07-20T13:04:58;3.30;;;2.40;;
65717;SDS011;52445;52.466;-1.016;2023-07-20T13:07:33;4.03;;;2.17;;
65717;SDS011;52445;52.466;-1.016;2023-07-20T13:10:04;5.88;;;2.00;;
65717;SDS011;52445;52.466;-1.016;2023-07-20T13:12:32;4.40;;;1.90;;
65717;SDS011;52445;52.466;-1.016;2023-07-20T13:15:01;3.92;;;2.17;;
65717;SDS011;52445;52.466;-1.016;2023-07-20T13:17:29;3.30;;;2.03;;
65717;SDS011;52445;52.466;-1.016;2023-07-20T13:19:55;3.67;;;1.90;;
65717;SDS011;52445;52.466;-1.016;2023-07-20T13:22:22;3.88;;;2.20;;
65717;SDS011;52445;52.466;-1.016;2023-07-20T13:24:49;5.82;;;2.20;;
65717;SDS011;52445;52.466;-1.016;2023-07-20T13:27:17;5.13;;;2.30;;
65717;SDS011;52445;52.466;-1.016;2023-07-20T13:29:45;4.88;;;2.25;;
65717;SDS011;52445;52.466;-1.016;2023-07-20T13:32:14;4.53;;;2.35;;
65717;SDS011;52445;52.466;-1.016;2023-07-20T13:34:42;4.75;;;2.22;;
65717;SDS011;52445;52.466;-1.016;2023-07-20T13:37:14;4.57;;;2.00;;
65717;SDS011;52445;52.466;-1.016;2023-07-20T13:39:42;4.18;;;2.00;;
65717;SDS011;52445;52.466;-1.016;2023-07-20T13:42:10;4.05;;;2.33;;
65717;SDS011;52445;52.466;-1.016;2023-07-20T13:44:39;5.28;;;2.20;;
65717;SDS011;52445;52.466;-1.016;2023-07-20T13:47:06;5.78;;;2.90;;
65717;SDS011;52445;52.466;-1.016;2023-07-20T13:52:13;3.83;;;2.08;;
65717;SDS011;52445;52.466;-1.016;2023-07-20T13:54:42;3.60;;;1.95;;
65717;SDS011;52445;52.466;-1.016;2023-07-20T13:57:12;3.05;;;1.70;;
65717;SDS011;52445;52.466;-1.016;2023-07-20T13:59:41;3.05;;;1.80;;
65717;SDS011;52445;52.466;-1.016;2023-07-20T14:02:08;5.47;;;1.98;;
65717;SDS011;52445;52.466;-1.016;2023-07-20T14:04:37;2.13;;;1.20;;
65717;SDS011;52445;52.466;-1.016;2023-07-20T14:07:04;2.85;;;1.67;;
65717;SDS011;52445;52.466;-1.016;2023-07-20T14:09:31;3.85;;;1.50;;
65717;SDS011;52445;52.466;-1.016;2023-07-20T14:11:59;3.92;;;2.22;;
65717;SDS011;52445;52.466;-1.016;2023-07-20T14:14:28;3.67;;;1.73;;
65717;SDS011;52445;52.466;-1.016;2023-07-20T14:16:55;3.50;;;2.13;;
65717;SDS011;52445;52.466;-1.016;2023-07-20T14:19:22;3.88;;;1.60;;
65717;SDS011;52445;52.466;-1.016;2023-07-20T14:21:49;3.50;;;1.60;;
65717;SDS011;52445;52.466;-1.016;2023-07-20T14:24:16;4.07;;;1.50;;
65717;SDS011;52445;52.466;-1.016;2023-07-20T14:26:44;3.25;;;1.70;;
65717;SDS011;52445;52.466;-1.016;2023-07-20T14:29:11;5.38;;;1.60;;
65717;SDS011;52445;52.466;-1.016;2023-07-20T14:31:38;3.88;;;1.50;;
65717;SDS011;52445;52.466;-1.016;2023-07-20T14:34:04;3.85;;;1.65;;
65717;SDS011;52445;52.466;-1.016;2023-07-20T14:36:31;3.95;;;1.58;;
65717;SDS011;52445;52.466;-1.016;2023-07-20T14:39:00;8.82;;;2.15;;
65717;SDS011;52445;52.466;-1.016;2023-07-20T14:41:28;3.53;;;1.50;;
65717;SDS011;52445;52.466;-1.016;2023-07-20T14:43:54;4.65;;;1.80;;
65717;SDS011;52445;52.466;-1.016;2023-07-20T14:46:23;3.47;;;2.17;;
65717;SDS011;52445;52.466;-1.016;2023-07-20T14:48:50;5.35;;;1.55;;
65717;SDS011;52445;52.466;-1.016;2023-07-20T14:51:18;3.70;;;2.00;;
65717;SDS011;52445;52.466;-1.016;2023-07-20T14:53:45;3.45;;;1.58;;
65717;SDS011;52445;52.466;-1.016;2023-07-20T14:56:12;3.83;;;1.60;;
65717;SDS011;52445;52.466;-1.016;2023-07-20T14:58:39;3.65;;;1.90;;
65717;SDS011;52445;52.466;-1.016;2023-07-20T15:01:06;6.30;;;2.53;;
65717;SDS011;52445;52.466;-1.016;2023-07-20T15:03:32;3.85;;;2.00;;
65717;SDS011;52445;52.466;-1.016;2023-07-20T15:06:00;4.97;;;2.42;;
65717;SDS011;52445;52.466;-1.016;2023-07-20T15:08:27;5.10;;;2.58;;
65717;SDS011;52445;52.466;-1.016;2023-07-20T15:10:54;6.25;;;2.17;;
65717;SDS011;52445;52.466;-1.016;2023-07-20T15:13:21;5.72;;;2.17;;